Time;durP1;ratioP1;P1;durP2;ratioP2;P2;SDS_P1;SDS_P2;PMS_P1;PMS_P2;Temp;Humidity;BMP_temperature;BMP_pressure;BME280_temperature;BME280_humidity;BME280_pressure;Samples;Min_cycle;Max_cycle;Signal;HPM_P1;HPM_P2
2023/10/18 00:01:29;;;;;;;9.80;4.20;;;;;;;5.32;100.00;99062.00;5161340;27;20051;-63
2023/10/18 00:03:56;;;;;;;10.43;3.75;;;;;;;5.51;100.00;99047.13;5161746;27;20056;-61
2023/10/18 00:06:23;;;;;;;11.18;4.70;;;;;;;5.30;100.00;99058.84;5161192;27;20054;-61
2023/10/18 00:08:50;;;;;;;8.60;4.15;;;;;;;5.29;100.00;99035.47;5161346;27;20058;-61
2023/10/18 00:11:16;;;;;;;10.95;4.85;;;;;;;5.44;100.00;99042.25;5161356;27;20360;-61
2023/10/18 00:13:45;;;;;;;12.20;4.70;;;;;;;5.35;100.00;99023.28;5161082;27;20042;-61
2023/10/18 00:16:12;;;;;;;10.00;4.63;;;;;;;5.49;100.00;99033.06;5161277;27;20046;-63
2023/10/18 00:18:38;;;;;;;13.23;4.72;;;;;;;5.16;100.00;99041.97;5160954;27;20071;-61
2023/10/18 00:21:06;;;;;;;9.55;5.10;;;;;;;5.30;100.00;99077.84;5161215;27;20043;-60
2023/10/18 00:23:33;;;;;;;13.32;4.18;;;;;;;5.40;100.00;99069.31;5161085;27;20377;-62
2023/10/18 00:26:03;;;;;;;10.88;5.40;;;;;;;5.39;100.00;99058.75;5161236;27;20134;-60
2023/10/18 00:28:31;;;;;;;7.18;3.85;;;;;;;5.32;100.00;99017.72;5160865;27;20050;-61
2023/10/18 00:30:57;;;;;;;8.93;4.40;;;;;;;5.22;100.00;99048.00;5161292;27;20051;-61
2023/10/18 00:33:23;;;;;;;8.40;5.03;;;;;;;5.21;100.00;99073.63;5161176;27;20411;-62
2023/10/18 00:35:52;;;;;;;9.10;4.13;;;;;;;5.10;100.00;99082.16;5160944;27;20062;-62
2023/10/18 00:38:18;;;;;;;14.27;5.18;;;;;;;5.06;100.00;99111.09;5160984;27;20107;-60
2023/10/18 00:40:45;;;;;;;10.73;4.68;;;;;;;4.99;100.00;99129.06;5160821;27;20082;-61
2023/10/18 00:43:19;;;;;;;9.75;4.35;;;;;;;5.02;100.00;99136.53;5160995;27;20054;-62
2023/10/18 00:45:48;;;;;;;13.32;5.07;;;;;;;5.03;100.00;99138.13;5160701;27;20047;-60
2023/10/18 00:48:14;;;;;;;8.82;4.43;;;;;;;5.00;100.00;99146.94;5160806;27;20073;-62
2023/10/18 00:50:43;;;;;;;7.78;4.32;;;;;;;5.15;100.00;99160.75;5160591;27;20050;-60
2023/10/18 00:53:09;;;;;;;9.75;4.68;;;;;;;5.13;100.00;99152.16;5160893;27;20042;-61
2023/10/18 00:55:35;;;;;;;7.07;4.53;;;;;;;5.28;100.00;99137.19;5160372;27;20047;-62
2023/10/18 00:58:05;;;;;;;9.05;4.38;;;;;;;5.16;100.00;99118.88;5160831;27;20078;-61
2023/10/18 01:00:32;;;;;;;10.07;4.70;;;;;;;5.13;100.00;99129.59;5160115;27;20051;-61
2023/10/18 01:03:00;;;;;;;8.80;5.43;;;;;;;5.12;100.00;99112.50;5160332;27;20053;-60
2023/10/18 01:05:26;;;;;;;12.05;4.72;;;;;;;5.43;100.00;99111.31;5160554;27;20142;-60
2023/10/18 01:07:53;;;;;;;10.68;5.35;;;;;;;5.30;100.00;99090.63;5160312;27;20564;-62
2023/10/18 01:10:23;;;;;;;13.13;4.93;;;;;;;5.23;100.00;99103.97;5160466;27;20053;-62
2023/10/18 01:12:51;;;;;;;13.52;5.32;;;;;;;5.38;100.00;99065.31;5160270;27;20069;-60
2023/10/18 01:15:19;;;;;;;10.75;5.03;;;;;;;5.05;100.00;99059.81;5160526;27;20107;-60
2023/10/18 01:17:47;;;;;;;9.30;4.45;;;;;;;5.17;100.00;99065.31;5160081;27;20050;-60
2023/10/18 01:20:33;;;;;;;8.05;4.68;;;;;;;5.35;100.00;99082.28;5160497;27;20059;-60
2023/10/18 01:23:00;;;;;;;11.55;5.10;;;;;;;5.22;100.00;99048.81;5160177;27;20377;-60
2023/10/18 01:25:27;;;;;;;13.23;5.60;;;;;;;5.20;100.00;99042.94;5159879;27;20054;-62
2023/10/18 01:27:53;;;;;;;12.98;5.38;;;;;;;5.22;100.00;99037.94;5159919;27;20420;-60
2023/10/18 01:30:20;;;;;;;13.77;5.70;;;;;;;5.10;100.00;99008.78;5159850;27;20050;-61
2023/10/18 01:32:46;;;;;;;8.75;5.07;;;;;;;5.38;100.00;99052.50;5160272;27;20046;-62
2023/10/18 01:35:13;;;;;;;10.38;4.60;;;;;;;5.64;100.00;98997.91;5159780;27;20042;-61
2023/10/18 01:37:39;;;;;;;14.68;5.30;;;;;;;5.48;100.00;98936.34;5160117;27;20059;-60
2023/10/18 01:40:20;;;;;;;8.48;5.05;;;;;;;5.29;100.00;98958.56;5159769;27;20412;-60
2023/10/18 01:42:50;;;;;;;12.90;5.45;;;;;;;5.26;100.00;98935.56;5160364;27;20046;-60
2023/10/18 01:45:21;;;;;;;9.75;5.47;;;;;;;5.30;100.00;98932.97;5159518;27;20043;-61
2023/10/18 01:47:48;;;;;;;9.48;5.63;;;;;;;5.19;100.00;98948.91;5159755;27;20379;-62
2023/10/18 01:50:15;;;;;;;9.52;5.25;;;;;;;5.21;100.00;98932.28;5159815;27;20060;-60
2023/10/18 01:52:42;;;;;;;13.52;6.18;;;;;;;5.27;100.00;98966.28;5159685;27;20364;-62
2023/10/18 01:55:12;;;;;;;14.23;5.28;;;;;;;5.09;100.00;98952.03;5159763;27;20370;-60
2023/10/18 01:57:38;;;;;;;10.82;5.53;;;;;;;5.30;100.00;98941.13;5159399;27;20416;-61
2023/10/18 02:00:12;;;;;;;12.40;6.05;;;;;;;5.22;100.00;98942.81;5159551;27;20142;-61
2023/10/18 02:02:38;;;;;;;;;;;;;;;5.26;100.00;98964.69;5159801;27;20046;-60
2023/10/18 02:05:07;;;;;;;10.93;5.38;;;;;;;5.25;100.00;98949.50;5159701;27;19976;-60
2023/10/18 02:07:32;;;;;;;11.63;5.28;;;;;;;5.38;100.00;98932.13;5159240;27;20100;-60
2023/10/18 02:09:58;;;;;;;16.30;6.07;;;;;;;5.38;100.00;98869.59;5159663;27;20082;-61
2023/10/18 02:12:27;;;;;;;8.35;5.15;;;;;;;5.24;100.00;98864.47;5158175;27;20408;-62
2023/10/18 02:14:55;;;;;;;9.57;5.03;;;;;;;5.12;100.00;98837.25;5159645;27;20046;-62
2023/10/18 02:17:22;;;;;;;9.70;5.05;;;;;;;5.40;100.00;98873.56;5159401;27;20110;-63
2023/10/18 02:19:48;;;;;;;11.02;5.88;;;;;;;5.32;100.00;98855.41;5159302;27;20600;-62
2023/10/18 02:22:16;;;;;;;10.55;5.25;;;;;;;5.31;100.00;98840.25;5159415;27;20141;-62
2023/10/18 02:24:42;;;;;;;11.52;5.50;;;;;;;5.27;100.00;98842.06;5158998;27;20090;-62
2023/10/18 02:27:09;;;;;;;10.63;5.10;;;;;;;5.22;100.00;98849.63;5159284;27;20050;-62
2023/10/18 02:29:36;;;;;;;16.35;5.78;;;;;;;5.28;100.00;98857.22;5159013;27;20088;-61
2023/10/18 02:32:05;;;;;;;10.48;5.35;;;;;;;5.17;100.00;98886.75;5158974;27;20051;-62
2023/10/18 02:34:34;;;;;;;12.07;5.25;;;;;;;5.10;100.00;98867.50;5158823;27;20385;-61
2023/10/18 02:37:01;;;;;;;10.90;5.28;;;;;;;4.86;100.00;98910.84;5159292;27;20062;-60
2023/10/18 02:39:28;;;;;;;6.80;4.80;;;;;;;5.22;100.00;98944.75;5158709;27;20054;-62
2023/10/18 02:41:56;;;;;;;11.13;5.38;;;;;;;5.05;100.00;98942.97;5158653;27;20550;-61
2023/10/18 02:44:22;;;;;;;16.70;6.35;;;;;;;4.95;100.00;98947.69;5159033;27;20332;-61
2023/10/18 02:46:49;;;;;;;11.52;4.97;;;;;;;5.10;100.00;98957.16;5159061;27;20054;-60
2023/10/18 02:49:15;;;;;;;12.48;6.00;;;;;;;5.10;100.00;98940.88;5158929;27;20042;-62
2023/10/18 02:51:43;;;;;;;10.85;5.47;;;;;;;5.08;100.00;98937.66;5158657;27;20079;-61
2023/10/18 02:54:16;;;;;;;10.65;5.70;;;;;;;5.00;100.00;98916.00;5158769;27;20133;-60
2023/10/18 02:56:43;;;;;;;22.90;5.72;;;;;;;5.02;100.00;98930.84;5158458;27;20052;-60
2023/10/18 02:59:10;;;;;;;14.98;6.25;;;;;;;5.12;100.00;98946.75;5158904;27;20563;-62
2023/10/18 03:01:40;;;;;;;11.55;5.57;;;;;;;5.07;100.00;98959.75;5158474;27;20047;-61
2023/10/18 03:04:09;;;;;;;14.63;5.80;;;;;;;4.95;100.00;98939.53;5158809;27;20123;-62
2023/10/18 03:06:35;;;;;;;12.98;5.10;;;;;;;5.07;100.00;98932.59;5158575;27;20057;-60
2023/10/18 03:09:03;;;;;;;12.43;5.47;;;;;;;5.06;100.00;98944.56;5158394;27;20051;-61
2023/10/18 03:11:31;;;;;;;11.93;6.47;;;;;;;5.07;100.00;98946.97;5158506;27;20082;-61
2023/10/18 03:13:57;;;;;;;13.32;5.85;;;;;;;5.25;100.00;98931.28;5158235;27;20047;-61
2023/10/18 03:16:39;;;;;;;10.18;5.45;;;;;;;5.00;100.00;98911.38;5158489;27;20058;-62
2023/10/18 03:19:11;;;;;;;12.48;5.80;;;;;;;5.07;100.00;98944.25;5158230;27;20073;-62
2023/10/18 03:21:37;;;;;;;15.48;6.13;;;;;;;5.25;100.00;98925.84;5158517;27;20050;-61
2023/10/18 03:24:05;;;;;;;16.38;6.10;;;;;;;4.90;100.00;98885.44;5157860;27;20441;-61
2023/10/18 03:26:35;;;;;;;10.57;5.40;;;;;;;5.19;100.00;98898.06;5158500;27;20051;-62
2023/10/18 03:29:11;;;;;;;16.42;6.25;;;;;;;5.28;100.00;98864.59;5158193;27;20050;-61
2023/10/18 03:31:38;;;;;;;11.25;5.43;;;;;;;5.22;100.00;98855.84;5157959;27;20050;-62
2023/10/18 03:34:13;;;;;;;15.20;5.55;;;;;;;5.28;100.00;98840.91;5158249;27;20043;-61
2023/10/18 03:36:48;;;;;;;14.85;6.13;;;;;;;5.16;100.00;98832.72;5158068;27;20057;-62
2023/10/18 03:39:15;;;;;;;13.55;5.35;;;;;;;5.27;100.00;98858.38;5158274;27;20118;-61
2023/10/18 03:41:41;;;;;;;14.60;5.70;;;;;;;5.28;100.00;98827.31;5157903;27;20058;-61
2023/10/18 03:44:07;;;;;;;10.27;5.82;;;;;;;5.01;100.00;98808.94;5158255;27;20047;-61
2023/10/18 03:46:47;;;;;;;16.33;6.70;;;;;;;5.22;100.00;98836.81;5157677;27;20047;-61
2023/10/18 03:49:18;;;;;;;14.23;6.30;;;;;;;5.12;100.00;98829.88;5157900;27;20051;-61
2023/10/18 03:51:46;;;;;;;17.98;6.80;;;;;;;5.14;100.00;98819.50;5157985;27;20051;-60
2023/10/18 03:54:14;;;;;;;18.00;6.60;;;;;;;5.07;100.00;98832.84;5157637;27;20099;-61
2023/10/18 03:56:43;;;;;;;13.05;5.88;;;;;;;5.07;100.00;98854.56;5157955;27;20082;-60
2023/10/18 03:59:19;;;;;;;16.63;6.20;;;;;;;4.99;100.00;98841.06;5157753;27;20050;-61
2023/10/18 04:02:04;;;;;;;15.57;6.03;;;;;;;4.94;100.00;98848.31;5157921;27;20400;-60
2023/10/18 04:04:34;;;;;;;12.55;6.50;;;;;;;5.05;100.00;98845.16;5157748;27;20377;-62
2023/10/18 04:07:01;;;;;;;10.63;5.35;;;;;;;4.62;100.00;98870.81;5157990;27;20046;-62
2023/10/18 04:09:27;;;;;;;13.75;6.32;;;;;;;4.80;100.00;98896.69;5157546;27;20430;-60
2023/10/18 04:11:54;;;;;;;10.38;5.43;;;;;;;5.05;100.00;98902.22;5157624;27;20046;-62
2023/10/18 04:14:22;;;;;;;10.73;6.22;;;;;;;5.10;100.00;98891.94;5157780;27;20051;-62
2023/10/18 04:16:57;;;;;;;13.45;6.03;;;;;;;4.95;100.00;98830.09;5157406;27;20053;-62
2023/10/18 04:19:24;;;;;;;19.58;6.28;;;;;;;5.06;100.00;98861.13;5157466;27;20062;-61
2023/10/18 04:21:53;;;;;;;15.00;6.25;;;;;;;4.79;100.00;98840.00;5157540;27;20054;-60
2023/10/18 04:24:20;;;;;;;13.43;6.35;;;;;;;5.09;100.00;98859.66;5157736;27;20312;-60
2023/10/18 04:26:47;;;;;;;13.55;6.20;;;;;;;4.78;100.00;98828.34;5157438;27;20087;-61
2023/10/18 04:29:32;;;;;;;12.18;5.88;;;;;;;4.89;100.00;98832.22;5157565;27;20058;-60
2023/10/18 04:31:58;;;;;;;15.35;6.30;;;;;;;5.22;100.00;98831.38;5157147;27;20082;-62
2023/10/18 04:34:29;;;;;;;13.02;6.03;;;;;;;4.99;100.00;98809.25;5157406;27;20061;-62
2023/10/18 04:36:55;;;;;;;13.98;5.90;;;;;;;4.95;100.00;98836.31;5160961;27;20130;-61
2023/10/18 04:39:22;;;;;;;10.77;5.68;;;;;;;5.17;100.00;98829.69;5160797;27;20054;-60
2023/10/18 04:41:49;;;;;;;10.98;5.68;;;;;;;5.02;100.00;98808.59;5160887;27;20463;-61
2023/10/18 04:44:19;;;;;;;14.82;5.50;;;;;;;4.83;100.00;98819.16;5160370;27;20050;-60
2023/10/18 04:46:48;;;;;;;15.02;5.85;;;;;;;5.10;100.00;98861.28;5160878;27;20042;-60
2023/10/18 04:49:22;;;;;;;12.07;6.57;;;;;;;5.22;100.00;98825.94;5160247;27;20116;-61
2023/10/18 04:51:48;;;;;;;8.65;5.65;;;;;;;4.88;100.00;98827.91;5160886;27;20058;-61
2023/10/18 04:54:18;;;;;;;10.57;6.45;;;;;;;5.19;100.00;98841.00;5160170;27;20313;-61
2023/10/18 04:56:45;;;;;;;13.73;6.03;;;;;;;4.89;100.00;98806.97;5159880;27;20190;-61
2023/10/18 04:59:22;;;;;;;10.55;5.43;;;;;;;5.16;100.00;98838.97;5160582;27;20050;-61
2023/10/18 05:01:56;;;;;;;12.38;6.00;;;;;;;4.95;100.00;98830.88;5160439;27;20141;-61
2023/10/18 05:04:24;;;;;;;;;;;;;;;5.08;100.00;98856.16;5160922;27;20374;-61
2023/10/18 05:06:54;;;;;;;17.00;7.00;;;;;;;5.06;100.00;98838.59;5159976;27;19999;-60
2023/10/18 05:09:30;;;;;;;13.77;6.82;;;;;;;5.15;100.00;98803.97;5160351;27;20062;-61
2023/10/18 05:12:04;;;;;;;13.80;5.70;;;;;;;4.93;100.00;98797.84;5159602;27;20384;-59
2023/10/18 05:14:35;;;;;;;15.50;6.13;;;;;;;5.10;100.00;98782.47;5160301;27;20407;-60
2023/10/18 05:17:10;;;;;;;13.02;6.25;;;;;;;4.97;100.00;98800.66;5159881;27;20057;-60
2023/10/18 05:19:37;;;;;;;10.32;6.10;;;;;;;5.39;100.00;98790.41;5159956;27;20062;-63
2023/10/18 05:22:04;;;;;;;16.10;6.20;;;;;;;5.05;100.00;98767.16;5159948;27;20047;-62
2023/10/18 05:24:36;;;;;;;11.00;5.93;;;;;;;5.00;100.00;98793.75;5159801;27;20047;-61
2023/10/18 05:27:05;;;;;;;15.43;5.97;;;;;;;4.74;100.00;98770.41;5159795;27;20099;-64
2023/10/18 05:29:35;;;;;;;14.73;6.00;;;;;;;5.23;100.00;98811.25;5159828;27;20054;-62
2023/10/18 05:32:13;;;;;;;19.83;6.57;;;;;;;5.12;100.00;98783.69;5159928;27;20320;-62
2023/10/18 05:34:51;;;;;;;16.23;7.05;;;;;;;5.34;100.00;98790.63;5159563;27;20099;-63
2023/10/18 05:37:19;;;;;;;12.60;6.07;;;;;;;5.52;100.00;98731.38;5159744;27;20078;-60
2023/10/18 05:40:42;;;;;;;15.40;6.13;;;;;;;5.41;100.00;98690.28;5159353;27;20150;-62
2023/10/18 05:42:46;;;;;;;10.75;5.72;;;;;;;5.62;100.00;98643.91;5159293;27;20114;-61
2023/10/18 05:45:12;;;;;;;12.80;6.22;;;;;;;5.40;100.00;98614.53;5159836;27;20050;-60
2023/10/18 05:47:39;;;;;;;12.75;5.50;;;;;;;5.51;100.00;98637.38;5157912;27;20046;-61
2023/10/18 05:50:12;;;;;;;18.70;6.20;;;;;;;5.56;100.00;98592.81;5159603;27;20054;-66
2023/10/18 05:52:38;;;;;;;17.48;5.82;;;;;;;5.57;100.00;98693.09;5159366;27;20050;-61
2023/10/18 05:55:09;;;;;;;13.00;6.55;;;;;;;5.55;100.00;98749.72;5159722;27;20145;-59
2023/10/18 05:57:34;;;;;;;16.65;6.40;;;;;;;5.54;100.00;98807.19;5159404;27;20066;-60
2023/10/18 06:00:00;;;;;;;13.30;6.90;;;;;;;5.40;100.00;98864.63;5159365;27;20059;-60
2023/10/18 06:02:27;;;;;;;15.88;6.40;;;;;;;5.51;100.00;98919.34;5159429;27;20073;-61
2023/10/18 06:04:55;;;;;;;14.43;6.10;;;;;;;5.36;100.00;98946.03;5158978;27;20055;-59
2023/10/18 06:07:23;;;;;;;11.20;5.95;;;;;;;5.17;100.00;98962.84;5159083;27;20057;-57
2023/10/18 06:09:55;;;;;;;13.73;6.70;;;;;;;5.25;100.00;99006.59;5158960;27;20057;-59
2023/10/18 06:12:22;;;;;;;15.05;5.63;;;;;;;5.29;100.00;99024.59;5159389;27;20061;-57
2023/10/18 06:14:51;;;;;;;14.52;6.65;;;;;;;5.28;100.00;99036.63;5158976;27;20130;-55
2023/10/18 06:17:19;;;;;;;26.23;7.28;;;;;;;5.22;100.00;99037.16;5159270;27;20078;-59
2023/10/18 06:19:47;;;;;;;14.00;6.97;;;;;;;5.13;100.00;99031.75;5158770;27;20062;-63
2023/10/18 06:22:28;;;;;;;23.05;7.03;;;;;;;5.10;100.00;99029.75;5159241;27;20357;-61
2023/10/18 06:24:55;;;;;;;11.07;7.13;;;;;;;5.36;100.00;99021.34;5159132;27;20054;-62
2023/10/18 06:27:21;;;;;;;11.20;6.55;;;;;;;5.24;100.00;99030.25;5158831;27;20046;-63
2023/10/18 06:29:51;;;;;;;12.57;6.75;;;;;;;5.32;100.00;99018.50;5159087;27;20397;-62
2023/10/18 06:32:22;;;;;;;16.05;7.45;;;;;;;5.36;100.00;99019.41;5158852;27;20374;-61
2023/10/18 06:34:49;;;;;;;8.98;5.68;;;;;;;4.94;100.00;99014.03;5158222;27;20051;-56
2023/10/18 06:37:20;;;;;;;17.38;7.13;;;;;;;5.45;100.00;99000.31;5158519;27;20050;-55
2023/10/18 06:39:48;;;;;;;13.63;6.50;;;;;;;5.16;100.00;98988.44;5158888;27;20185;-58
2023/10/18 06:42:14;;;;;;;9.90;6.63;;;;;;;5.32;100.00;98971.50;5158405;27;20141;-61
2023/10/18 06:44:43;;;;;;;20.67;8.15;;;;;;;5.39;100.00;98977.97;5158810;27;20137;-60
2023/10/18 06:47:13;;;;;;;17.92;6.28;;;;;;;4.84;100.00;98960.09;5158528;27;20051;-58
2023/10/18 06:49:42;;;;;;;16.55;7.38;;;;;;;4.99;100.00;98939.66;5158486;27;20042;-60
2023/10/18 06:52:08;;;;;;;11.80;6.55;;;;;;;5.00;100.00;98940.44;5158413;27;20066;-60
2023/10/18 06:54:38;;;;;;;22.05;6.88;;;;;;;5.22;100.00;98925.72;5158642;27;20057;-57
2023/10/18 06:57:15;;;;;;;13.07;6.32;;;;;;;5.07;100.00;98922.50;5158833;27;20093;-62
2023/10/18 06:59:42;;;;;;;17.90;6.15;;;;;;;5.05;100.00;98919.31;5157963;27;20150;-62
2023/10/18 07:02:11;;;;;;;12.40;5.93;;;;;;;5.07;100.00;98916.28;5158574;27;20047;-62
2023/10/18 07:04:37;;;;;;;11.23;6.10;;;;;;;4.79;100.00;98910.59;5158108;27;20050;-60
2023/10/18 07:07:11;;;;;;;8.93;6.32;;;;;;;5.12;100.00;98886.97;5158543;27;20106;-57
2023/10/18 07:09:37;;;;;;;21.27;7.53;;;;;;;5.11;100.00;98887.31;5158024;27;20403;-58
2023/10/18 07:12:03;;;;;;;11.15;6.43;;;;;;;5.36;100.00;98890.88;5158094;27;20199;-55
2023/10/18 07:14:30;;;;;;;11.25;6.53;;;;;;;5.23;100.00;98905.56;5158059;27;20379;-60
2023/10/18 07:17:00;;;;;;;7.70;5.65;;;;;;;4.94;100.00;98899.13;5157663;27;20051;-60
2023/10/18 07:19:26;;;;;;;11.32;5.82;;;;;;;4.94;100.00;98877.41;5158116;27;20046;-59
2023/10/18 07:21:53;;;;;;;12.75;7.10;;;;;;;4.99;100.00;98896.19;5157911;27;20074;-61
2023/10/18 07:24:20;;;;;;;14.57;6.97;;;;;;;5.09;100.00;98895.78;5157997;27;20138;-60
2023/10/18 07:26:48;;;;;;;10.23;5.78;;;;;;;5.06;100.00;98895.66;5157845;27;20050;-61
2023/10/18 07:29:14;;;;;;;14.55;5.80;;;;;;;5.08;100.00;98902.34;5158084;27;20444;-61
2023/10/18 07:31:44;;;;;;;10.73;6.30;;;;;;;5.07;100.00;98913.56;5157633;27;20078;-61
2023/10/18 07:34:17;;;;;;;14.98;6.50;;;;;;;5.38;100.00;98885.91;5158244;27;20404;-61
2023/10/18 07:36:44;;;;;;;9.27;6.05;;;;;;;5.24;100.00;98912.59;5157847;27;20073;-61
2023/10/18 07:39:11;;;;;;;14.68;5.25;;;;;;;4.91;100.00;98900.59;5157747;27;20051;-62
2023/10/18 07:41:37;;;;;;;14.73;5.97;;;;;;;5.14;100.00;98890.16;5157805;27;20046;-61
2023/10/18 07:44:05;;;;;;;15.02;6.72;;;;;;;5.10;100.00;98888.44;5157637;27;20393;-60
2023/10/18 07:46:34;;;;;;;9.68;5.78;;;;;;;5.05;100.00;98867.69;5157727;27;20100;-61
2023/10/18 07:49:04;;;;;;;12.95;6.03;;;;;;;4.97;100.00;98857.72;5157441;27;20065;-61
2023/10/18 07:51:32;;;;;;;12.98;6.38;;;;;;;5.12;100.00;98851.63;5157910;27;20046;-61
2023/10/18 07:53:59;;;;;;;10.73;5.65;;;;;;;4.81;100.00;98840.47;5157346;27;20046;-60
2023/10/18 07:56:27;;;;;;;10.13;5.70;;;;;;;5.29;100.00;98823.47;5157683;27;20078;-61
2023/10/18 07:58:54;;;;;;;13.60;6.25;;;;;;;5.34;100.00;98841.50;5157154;27;20087;-61
2023/10/18 08:01:46;;;;;;;10.75;5.90;;;;;;;5.21;100.00;98829.03;5157307;27;20055;-61
2023/10/18 08:04:14;;;;;;;10.48;5.55;;;;;;;5.22;100.00;98822.44;5157621;27;20054;-62
2023/10/18 08:06:40;;;;;;;7.95;4.45;;;;;;;5.13;100.00;98811.66;5157554;27;20054;-62
2023/10/18 08:09:06;;;;;;;7.93;4.53;;;;;;;5.20;100.00;98820.06;5157708;27;20054;-60
2023/10/18 08:11:34;;;;;;;15.55;6.05;;;;;;;5.56;100.00;98800.25;5160642;27;20123;-61
2023/10/18 08:14:01;;;;;;;9.20;5.00;;;;;;;5.61;100.00;98818.28;5161297;27;20345;-62
2023/10/18 08:16:42;;;;;;;10.50;4.53;;;;;;;5.76;100.00;98809.44;5160684;27;20427;-61
2023/10/18 08:19:09;;;;;;;7.15;4.75;;;;;;;5.81;100.00;98835.63;5161170;27;20143;-62
2023/10/18 08:21:37;;;;;;;7.13;4.35;;;;;;;5.66;100.00;98848.78;5160790;27;20118;-61
2023/10/18 08:24:08;;;;;;;14.38;5.93;;;;;;;5.65;100.00;98847.19;5160704;27;20137;-60
2023/10/18 08:26:45;;;;;;;7.45;4.60;;;;;;;5.92;100.00;98861.22;5160890;27;20058;-61
2023/10/18 08:29:11;;;;;;;17.20;6.50;;;;;;;5.66;100.00;98870.53;5160697;27;20058;-62
2023/10/18 08:31:38;;;;;;;16.40;6.70;;;;;;;5.85;100.00;98861.00;5160655;27;20404;-61
2023/10/18 08:34:05;;;;;;;7.57;4.93;;;;;;;5.98;100.00;98859.09;5160266;27;20058;-60
2023/10/18 08:36:31;;;;;;;12.15;5.10;;;;;;;6.00;100.00;98860.34;5160908;27;20042;-61
2023/10/18 08:38:57;;;;;;;10.05;5.13;;;;;;;5.97;100.00;98863.75;5160608;27;20336;-61
2023/10/18 08:41:31;;;;;;;9.20;4.60;;;;;;;5.77;100.00;98870.09;5160767;27;20050;-61
2023/10/18 08:44:06;;;;;;;7.70;4.47;;;;;;;6.18;100.00;98869.06;5160218;27;20046;-60
2023/10/18 08:46:36;;;;;;;7.65;4.35;;;;;;;5.95;100.00;98884.28;5160372;27;20050;-61
2023/10/18 08:49:06;;;;;;;6.63;4.35;;;;;;;6.00;100.00;98884.84;5160599;27;20058;-62
2023/10/18 08:51:35;;;;;;;5.07;3.33;;;;;;;5.90;100.00;98885.28;5160565;27;20104;-62
2023/10/18 08:54:03;;;;;;;10.27;4.45;;;;;;;5.88;100.00;98888.31;5160546;27;20054;-62
2023/10/18 08:56:29;;;;;;;8.43;4.35;;;;;;;6.12;100.00;98882.09;5160344;27;20054;-61
2023/10/18 08:58:56;;;;;;;6.55;4.35;;;;;;;5.82;100.00;98892.41;5160175;27;20051;-61
2023/10/18 09:01:23;;;;;;;7.30;4.80;;;;;;;5.79;100.00;98882.19;5160099;27;20141;-61
2023/10/18 09:03:49;;;;;;;8.50;4.22;;;;;;;6.02;100.00;98879.84;5160656;27;20142;-61
2023/10/18 09:06:22;;;;;;;8.25;4.78;;;;;;;6.28;100.00;98884.13;5160281;27;20050;-60
2023/10/18 09:09:00;;;;;;;7.63;4.07;;;;;;;6.05;100.00;98889.25;5160089;27;20423;-59
2023/10/18 09:11:31;;;;;;;5.68;4.50;;;;;;;5.86;100.00;98884.34;5159893;27;20055;-60
2023/10/18 09:16:39;;;;;;;8.70;4.78;;;;;;;6.12;100.00;98879.38;5157312;27;20368;-62
2023/10/18 09:19:06;;;;;;;8.50;4.50;;;;;;;6.05;100.00;98875.66;5159853;27;20106;-60
2023/10/18 09:21:42;;;;;;;8.43;4.07;;;;;;;5.85;100.00;98877.31;5159971;27;20050;-66
2023/10/18 09:24:09;;;;;;;12.75;5.45;;;;;;;6.15;100.00;98877.91;5160284;27;20092;-62
2023/10/18 09:26:40;;;;;;;9.60;4.50;;;;;;;6.00;100.00;98868.53;5160104;27;20054;-57
2023/10/18 09:29:08;;;;;;;8.40;4.35;;;;;;;6.23;100.00;98870.75;5159879;27;20046;-62
2023/10/18 09:31:34;;;;;;;12.00;4.50;;;;;;;6.27;100.00;98867.00;5159610;27;20058;-61
2023/10/18 09:34:07;;;;;;;9.65;4.35;;;;;;;6.20;100.00;98866.78;5159554;27;20133;-62
2023/10/18 09:36:38;;;;;;;13.45;4.32;;;;;;;6.17;100.00;98855.81;5159412;27;20050;-65
2023/10/18 09:39:09;;;;;;;7.75;5.13;;;;;;;6.12;100.00;98848.66;5160136;27;20354;-60
2023/10/18 09:41:37;;;;;;;7.88;4.38;;;;;;;6.12;100.00;98844.00;5159328;27;20043;-60
2023/10/18 09:44:03;;;;;;;9.15;3.83;;;;;;;6.26;100.00;98843.63;5159807;27;20368;-61
2023/10/18 09:46:30;;;;;;;4.63;3.92;;;;;;;6.51;100.00;98851.75;5159350;27;20137;-62
2023/10/18 09:48:58;;;;;;;6.43;3.97;;;;;;;6.22;100.00;98850.09;5159629;27;20057;-62
2023/10/18 09:51:24;;;;;;;8.52;3.75;;;;;;;6.61;100.00;98848.53;5159082;27;20054;-61
2023/10/18 09:53:52;;;;;;;5.15;3.50;;;;;;;6.20;100.00;98857.81;5159351;27;20046;-59
2023/10/18 09:56:24;;;;;;;7.18;3.80;;;;;;;6.57;100.00;98853.09;5159439;27;20103;-59
2023/10/18 09:58:51;;;;;;;5.57;3.47;;;;;;;6.52;100.00;98848.66;5159047;27;20050;-59
2023/10/18 10:01:26;;;;;;;6.63;3.40;;;;;;;6.53;100.00;98852.19;5159377;27;20107;-62
2023/10/18 10:03:53;;;;;;;6.22;3.85;;;;;;;6.59;100.00;98854.31;5158943;27;20062;-61
2023/10/18 10:06:21;;;;;;;11.57;4.60;;;;;;;6.38;100.00;98850.19;5158757;27;20427;-61
2023/10/18 10:08:51;;;;;;;9.65;4.68;;;;;;;6.48;100.00;98842.31;5158828;27;20071;-59
2023/10/18 10:11:19;;;;;;;6.80;3.78;;;;;;;6.56;100.00;98844.13;5159090;27;20369;-62
2023/10/18 10:13:49;;;;;;;11.00;4.15;;;;;;;6.66;100.00;98828.41;5158631;27;20058;-61
2023/10/18 10:16:19;;;;;;;7.03;4.28;;;;;;;6.79;100.00;98838.13;5159102;27;20308;-63
2023/10/18 10:18:47;;;;;;;4.70;3.40;;;;;;;6.76;100.00;98844.25;5159043;27;20137;-62
2023/10/18 10:21:16;;;;;;;5.38;3.90;;;;;;;6.39;100.00;98840.88;5158858;27;20071;-62
2023/10/18 10:23:42;;;;;;;8.35;3.50;;;;;;;6.66;100.00;98834.66;5159006;27;20141;-61
2023/10/18 10:26:15;;;;;;;10.23;3.30;;;;;;;6.74;100.00;98833.72;5158790;27;20043;-62
2023/10/18 10:31:58;;;;;;;9.65;4.55;;;;;;;6.92;100.00;98831.47;5158778;27;20049;-61
2023/10/18 10:34:26;;;;;;;6.07;2.65;;;;;;;6.93;100.00;98833.09;5133449;27;20054;-60
2023/10/18 10:36:53;;;;;;;3.85;2.40;;;;;;;7.14;100.00;98819.22;5158879;27;20142;-62
2023/10/18 10:39:24;;;;;;;7.63;2.67;;;;;;;6.98;100.00;98812.94;5158612;27;20107;-63
2023/10/18 10:41:50;;;;;;;4.43;3.22;;;;;;;6.84;100.00;98824.25;5158762;27;20047;-61
2023/10/18 10:44:22;;;;;;;4.03;3.17;;;;;;;6.92;100.00;98830.69;5158379;27;20424;-62
2023/10/18 10:46:50;;;;;;;6.35;2.83;;;;;;;6.73;100.00;98829.44;5158781;27;20413;-64
2023/10/18 10:49:48;;;;;;;6.65;2.80;;;;;;;6.81;100.00;98828.47;5158052;27;20066;-62
2023/10/18 10:52:18;;;;;;;8.30;3.38;;;;;;;6.77;100.00;98832.25;5158665;27;20061;-61
2023/10/18 10:54:47;;;;;;;5.47;2.78;;;;;;;6.96;100.00;98835.09;5158091;27;20050;-59
2023/10/18 10:57:15;;;;;;;10.50;4.68;;;;;;;7.03;100.00;98838.03;5158287;27;20059;-60
2023/10/18 10:59:51;;;;;;;5.70;2.95;;;;;;;6.82;100.00;98840.16;5158270;27;20046;-61
2023/10/18 11:02:24;;;;;;;6.28;2.75;;;;;;;6.62;100.00;98835.69;5157931;27;20043;-62
2023/10/18 11:04:50;;;;;;;7.20;3.25;;;;;;;6.75;100.00;98831.78;5158324;27;20064;-60
2023/10/18 11:07:22;;;;;;;4.72;3.28;;;;;;;6.83;100.00;98830.84;5157985;27;20085;-58
2023/10/18 11:09:50;;;;;;;3.78;3.30;;;;;;;6.89;100.00;98837.63;5158175;27;20054;-60
2023/10/18 11:12:17;;;;;;;9.55;4.70;;;;;;;6.98;100.00;98829.31;5157630;27;20050;-60
2023/10/18 11:14:44;;;;;;;7.10;3.78;;;;;;;6.90;100.00;98838.41;5158060;27;20412;-59
2023/10/18 11:17:17;;;;;;;9.75;3.78;;;;;;;6.96;100.00;98839.75;5158024;27;20054;-60
2023/10/18 11:19:44;;;;;;;5.88;3.95;;;;;;;6.93;100.00;98841.25;5158010;27;20111;-61
2023/10/18 11:22:12;;;;;;;5.47;4.10;;;;;;;6.94;100.00;98842.84;5157838;27;20050;-63
2023/10/18 11:24:39;;;;;;;13.10;4.97;;;;;;;6.62;100.00;98846.59;5157814;27;20129;-62
2023/10/18 11:27:08;;;;;;;10.18;4.68;;;;;;;6.92;100.00;98842.38;5157992;27;20061;-61
2023/10/18 11:29:34;;;;;;;6.90;4.35;;;;;;;6.66;100.00;98842.81;5157531;27;20407;-61
2023/10/18 11:32:00;;;;;;;6.55;5.03;;;;;;;6.84;100.00;98848.78;5158059;27;20099;-62
2023/10/18 11:34:27;;;;;;;13.57;4.90;;;;;;;6.64;100.00;98839.66;5157828;27;20051;-61
2023/10/18 11:36:54;;;;;;;9.55;4.70;;;;;;;6.62;100.00;98839.22;5157840;27;20188;-61
2023/10/18 11:39:25;;;;;;;6.82;5.03;;;;;;;6.69;100.00;98842.13;5157553;27;20153;-60
2023/10/18 11:41:53;;;;;;;8.63;4.88;;;;;;;6.93;100.00;98846.72;5157699;27;20073;-62
2023/10/18 11:44:27;;;;;;;10.10;5.15;;;;;;;6.80;100.00;98832.34;5158672;27;20046;-59